createdAt,value
2019-04-14T00:02:29.639Z,100.00
2019-04-14T00:07:49.440Z,100.00
2019-04-14T00:10:59.426Z,100.00
2019-04-14T00:13:30.576Z,100.00
2019-04-14T00:16:19.019Z,100.00
2019-04-14T00:18:49.100Z,100.00
2019-04-14T00:21:19.385Z,100.00
2019-04-14T00:23:50.101Z,100.00
2019-04-14T00:26:40.192Z,100.00
2019-04-14T00:29:10.918Z,100.00
2019-04-14T00:32:20.536Z,99.58
2019-04-14T00:35:10.335Z,99.58
2019-04-14T00:38:17.821Z,99.12
2019-04-14T00:41:07.196Z,98.65
2019-04-14T00:43:55.402Z,98.73
2019-04-14T00:46:43.265Z,98.71
2019-04-14T00:49:12.016Z,98.43
2019-04-14T00:51:41.371Z,98.47
2019-04-14T00:54:11.100Z,98.11
2019-04-14T00:56:39.737Z,98.16
2019-04-14T00:59:09.247Z,98.54
2019-04-14T01:01:39.470Z,98.73
2019-04-14T01:04:09.809Z,98.60
2019-04-14T01:06:40.450Z,98.58
2019-04-14T01:12:21.133Z,98.46
2019-04-14T01:14:51.675Z,98.53
2019-04-14T01:17:41.681Z,98.54
2019-04-14T01:20:12.388Z,99.21
2019-04-14T01:22:42.425Z,100.00
2019-04-14T01:25:12.847Z,100.00
2019-04-14T01:27:43.012Z,100.00
2019-04-14T01:30:13.343Z,99.18
2019-04-14T01:32:43.648Z,98.63
2019-04-14T01:35:14.493Z,98.17
2019-04-14T01:37:44.107Z,98.20
2019-04-14T01:40:14.328Z,98.29
2019-04-14T01:42:44.175Z,98.80
2019-04-14T01:45:35.905Z,99.30
2019-04-14T01:48:45.478Z,99.91
2019-04-14T01:51:33.323Z,99.46
2019-04-14T01:54:21.760Z,98.99
2019-04-14T01:57:10.947Z,98.01
2019-04-14T01:59:41.276Z,97.44
2019-04-14T02:05:19.801Z,97.47
2019-04-14T02:07:49.418Z,97.60
2019-04-14T02:10:39.208Z,97.66
2019-04-14T02:13:28.932Z,98.19
2019-04-14T02:16:11.093Z,98.00
2019-04-14T02:18:29.640Z,97.64
2019-04-14T02:21:19.501Z,97.16
2019-04-14T02:23:49.800Z,98.03
2019-04-14T02:26:20.006Z,98.02
2019-04-14T02:28:50.333Z,98.52
2019-04-14T02:31:39.307Z,99.03
2019-04-14T02:36:48.319Z,98.81
2019-04-14T02:39:24.105Z,98.59
2019-04-14T02:42:02.507Z,99.25
2019-04-14T02:44:24.035Z,100.00
2019-04-14T02:46:59.660Z,99.31
2019-04-14T02:49:18.490Z,99.60
2019-04-14T02:51:54.141Z,99.07
2019-04-14T02:54:23.132Z,98.77
2019-04-14T02:56:52.797Z,97.83
2019-04-14T02:59:19.722Z,98.14
2019-04-14T03:02:11.955Z,97.61
2019-04-14T03:04:19.528Z,98.28
2019-04-14T03:07:16.554Z,97.53
2019-04-14T03:09:41.787Z,97.41
2019-04-14T03:12:22.380Z,98.19
2019-04-14T03:14:47.704Z,98.78
2019-04-14T03:22:55.772Z,98.49
2019-04-14T03:25:44.200Z,98.88
2019-04-14T03:41:30.088Z,97.63
2019-04-14T03:44:09.806Z,97.70
2019-04-14T03:49:29.445Z,98.37
2019-04-14T03:51:59.703Z,98.97
2019-04-14T03:54:15.598Z,98.24
2019-04-14T03:56:49.621Z,97.88
2019-04-14T04:02:14.089Z,97.32
2019-04-14T04:04:43.071Z,97.31
2019-04-14T04:07:12.489Z,97.49
2019-04-14T04:12:31.421Z,98.84
2019-04-14T04:15:19.976Z,98.73
2019-04-14T04:20:45.525Z,98.31
2019-04-14T04:23:33.933Z,98.33
2019-04-14T04:26:23.269Z,98.60
2019-04-14T04:29:11.308Z,98.59
2019-04-14T04:31:59.477Z,98.83
2019-04-14T04:34:47.270Z,99.12
2019-04-14T04:43:01.323Z,98.44
2019-04-14T04:45:49.864Z,98.66
2019-04-14T04:48:19.639Z,98.12
2019-04-14T04:51:09.369Z,98.25
2019-04-14T04:56:47.249Z,97.96
2019-04-14T04:59:17.185Z,98.23
2019-04-14T05:01:45.928Z,98.39
2019-04-14T05:04:17.657Z,99.30
2019-04-14T05:10:13.838Z,98.74
2019-04-14T05:18:02.789Z,99.60
2019-04-14T05:20:33.442Z,98.39
2019-04-14T05:23:03.739Z,97.49
2019-04-14T05:25:34.140Z,96.45
2019-04-14T05:28:24.535Z,96.54
2019-04-14T05:30:54.763Z,97.28
2019-04-14T05:33:25.746Z,96.51
2019-04-14T05:35:55.271Z,95.54
2019-04-14T05:38:26.171Z,94.91
2019-04-14T05:40:56.197Z,93.45
2019-04-14T05:43:36.940Z,94.16
2019-04-14T05:45:56.657Z,93.81
2019-04-14T05:48:27.318Z,93.27
2019-04-14T05:50:57.740Z,94.30
2019-04-14T05:53:48.051Z,93.33
2019-04-14T05:56:18.744Z,92.88
2019-04-14T05:58:47.777Z,91.69
2019-04-14T06:01:18.170Z,91.00
2019-04-14T06:03:47.808Z,91.87
2019-04-14T06:06:16.908Z,91.38
2019-04-14T06:08:45.521Z,91.59
2019-04-14T06:11:14.298Z,92.43
2019-04-14T06:13:42.977Z,90.76
2019-04-14T06:16:11.629Z,90.40
2019-04-14T06:18:40.245Z,89.23
2019-04-14T06:21:08.858Z,90.15
2019-04-14T06:23:37.591Z,89.65
2019-04-14T06:26:06.473Z,89.46
2019-04-14T06:28:35.099Z,90.29
2019-04-14T06:41:59.036Z,89.03
2019-04-14T06:44:27.669Z,87.83
2019-04-14T06:46:56.354Z,86.44
2019-04-14T06:49:25.065Z,83.41
2019-04-14T06:51:53.854Z,83.05
2019-04-14T06:54:22.571Z,83.64
2019-04-14T06:56:51.497Z,84.23
2019-04-14T07:02:15.188Z,83.28
2019-04-14T07:04:43.871Z,82.97
2019-04-14T07:10:00.081Z,74.75
2019-04-14T07:12:28.588Z,69.39
2019-04-14T07:14:57.167Z,66.64
2019-04-14T07:17:25.871Z,70.78
2019-04-14T07:20:01.993Z,69.36
2019-04-14T07:22:24.986Z,68.75
2019-04-14T07:24:53.796Z,67.50
2019-04-14T07:27:22.418Z,67.60
2019-04-14T07:30:10.184Z,71.25
2019-04-14T07:32:58.411Z,71.68
2019-04-14T07:36:05.549Z,71.39
2019-04-14T07:44:03.972Z,69.70
2019-04-14T07:46:51.871Z,70.44
2019-04-14T07:49:39.616Z,66.75
2019-04-14T07:52:27.378Z,70.16
2019-04-14T07:55:15.195Z,69.15
2019-04-14T07:58:02.981Z,70.73
2019-04-14T08:03:26.873Z,70.60
2019-04-14T08:05:56.102Z,71.11
2019-04-14T08:08:24.829Z,72.34
2019-04-14T08:10:53.468Z,72.76
2019-04-14T08:13:22.548Z,72.08
2019-04-14T08:16:10.746Z,70.48
2019-04-14T08:18:39.892Z,70.88
2019-04-14T08:21:09.350Z,71.30
2019-04-14T08:23:38.607Z,73.48
2019-04-14T08:26:26.957Z,73.71
2019-04-14T08:28:55.663Z,73.50
2019-04-14T08:31:24.482Z,72.02
2019-04-14T08:33:53.172Z,72.50
2019-04-14T08:36:21.839Z,73.06
2019-04-14T08:38:50.515Z,74.87
2019-04-14T08:41:19.234Z,72.66
2019-04-14T08:44:07.038Z,74.47
2019-04-14T08:46:54.849Z,73.29
2019-04-14T08:49:43.171Z,74.69
2019-04-14T08:52:30.986Z,75.01
2019-04-14T08:55:19.313Z,72.81
2019-04-14T08:58:07.087Z,73.83
2019-04-14T09:00:54.986Z,72.67
2019-04-14T09:06:22.211Z,69.88
2019-04-14T09:11:59.171Z,67.08
2019-04-14T09:14:27.871Z,67.04
2019-04-14T09:16:56.518Z,63.48
2019-04-14T09:19:25.220Z,64.47
2019-04-14T09:21:53.857Z,64.60
2019-04-14T09:24:22.483Z,64.19
2019-04-14T09:26:51.072Z,64.25
2019-04-14T09:29:19.724Z,61.75
2019-04-14T09:31:48.413Z,61.50
2019-04-14T09:34:17.071Z,62.12
2019-04-14T09:36:45.741Z,60.63
2019-04-14T09:39:14.437Z,58.07
2019-04-14T09:41:43.090Z,56.07
2019-04-14T09:44:11.770Z,57.30
2019-04-14T09:46:40.436Z,56.47
2019-04-14T09:49:09.143Z,56.32
2019-04-14T09:51:37.797Z,57.19
2019-04-14T09:54:06.586Z,55.99
2019-04-14T09:56:35.312Z,56.04
2019-04-14T09:59:04.086Z,56.89
2019-04-14T10:01:32.737Z,55.10
2019-04-14T10:04:01.497Z,56.47
2019-04-14T10:06:30.150Z,56.25
2019-04-14T10:08:58.921Z,57.93
2019-04-14T10:11:27.600Z,57.94
2019-04-14T10:13:56.288Z,57.74
2019-04-14T10:16:24.907Z,55.54
2019-04-14T10:18:53.497Z,54.57
2019-04-14T10:21:22.166Z,55.13
2019-04-14T10:23:50.720Z,52.18
2019-04-14T10:26:19.336Z,52.48
2019-04-14T10:28:50.668Z,51.32
2019-04-14T10:31:18.387Z,52.45
2019-04-14T10:33:47.091Z,49.54
2019-04-14T10:36:15.789Z,49.52
2019-04-14T10:38:44.488Z,49.02
2019-04-14T10:41:13.163Z,50.36
2019-04-14T10:43:41.900Z,48.67
2019-04-14T10:46:10.610Z,47.77
2019-04-14T10:48:39.292Z,51.13
2019-04-14T10:51:07.958Z,45.56
2019-04-14T10:53:36.674Z,46.03
2019-04-14T10:56:05.328Z,46.44
2019-04-14T10:58:53.288Z,48.07
2019-04-14T11:01:21.979Z,48.63
2019-04-14T11:03:50.567Z,45.58
2019-04-14T11:06:38.499Z,44.26
2019-04-14T11:09:46.941Z,44.75
2019-04-14T11:12:15.758Z,51.17
2019-04-14T11:14:44.417Z,47.75
2019-04-14T11:17:13.181Z,47.81
2019-04-14T11:19:41.803Z,51.50
2019-04-14T11:22:10.500Z,50.69
2019-04-14T11:24:39.150Z,52.23
2019-04-14T11:27:07.889Z,51.89
2019-04-14T11:29:36.508Z,48.88
2019-04-14T11:37:49.323Z,50.16
2019-04-14T11:43:07.235Z,51.00
2019-04-14T11:45:35.821Z,49.22
2019-04-14T11:48:04.626Z,46.84
2019-04-14T11:50:33.253Z,48.48
2019-04-14T11:53:01.760Z,45.88
2019-04-14T11:55:30.472Z,44.57
2019-04-14T11:57:59.118Z,44.38
2019-04-14T12:00:46.881Z,40.92
2019-04-14T12:03:34.698Z,41.01
2019-04-14T12:06:22.484Z,41.28
2019-04-14T12:09:29.570Z,39.65
2019-04-14T12:11:58.448Z,39.10
2019-04-14T12:14:27.068Z,39.01
2019-04-14T12:16:55.796Z,39.99
2019-04-14T12:19:24.497Z,44.60
2019-04-14T12:21:53.187Z,40.80
2019-04-14T12:24:21.836Z,40.54
2019-04-14T12:26:50.534Z,41.82
2019-04-14T12:29:19.250Z,39.66
2019-04-14T12:35:02.252Z,37.66
2019-04-14T12:37:30.894Z,41.44
2019-04-14T12:39:59.602Z,39.20
2019-04-14T12:43:06.691Z,38.00
2019-04-14T12:53:58.961Z,40.31
2019-04-14T13:04:27.666Z,39.98
2019-04-14T13:06:56.322Z,40.19
2019-04-14T13:09:25.009Z,39.30
2019-04-14T13:11:53.598Z,41.10
2019-04-14T13:14:22.287Z,40.02
2019-04-14T13:16:50.950Z,41.00
2019-04-14T13:19:19.634Z,40.90
2019-04-14T13:21:48.333Z,41.94
2019-04-14T13:24:17.023Z,42.64
2019-04-14T13:26:45.712Z,42.30
2019-04-14T13:29:14.405Z,42.72
2019-04-14T13:31:43.068Z,42.55
2019-04-14T13:34:11.763Z,43.42
2019-04-14T13:36:40.503Z,42.66
2019-04-14T13:39:09.125Z,44.00
2019-04-14T13:41:37.779Z,43.71
2019-04-14T13:44:06.476Z,42.21
2019-04-14T13:46:35.192Z,41.04
2019-04-14T13:49:03.764Z,42.61
2019-04-14T13:51:32.417Z,41.21
2019-04-14T13:54:01.053Z,44.07
2019-04-14T13:56:29.574Z,44.77
2019-04-14T13:58:58.218Z,43.35
2019-04-14T14:01:26.925Z,42.23
2019-04-14T14:03:55.436Z,43.56
2019-04-14T14:06:24.115Z,44.54
2019-04-14T14:08:52.772Z,46.51
2019-04-14T14:11:40.560Z,44.95
2019-04-14T14:14:28.350Z,45.45
2019-04-14T14:25:02.506Z,44.29
2019-04-14T14:27:31.173Z,45.12
2019-04-14T14:29:59.859Z,43.46
2019-04-14T14:32:47.639Z,43.33
2019-04-14T14:35:16.400Z,43.34
2019-04-14T14:37:45.090Z,45.99
2019-04-14T14:40:13.886Z,46.79
2019-04-14T14:42:42.586Z,46.37
2019-04-14T14:48:38.525Z,45.71
2019-04-14T14:51:26.299Z,44.79
2019-04-14T14:53:55.062Z,45.01
2019-04-14T14:56:23.726Z,48.30
2019-04-14T14:58:52.452Z,45.40
2019-04-14T15:01:40.652Z,44.62
2019-04-14T15:04:09.422Z,45.81
2019-04-14T15:06:38.192Z,47.26
2019-04-14T15:09:46.621Z,48.50
2019-04-14T15:12:15.270Z,46.58
2019-04-14T15:14:43.964Z,48.86
2019-04-14T15:17:12.706Z,49.41
2019-04-14T15:19:41.318Z,50.25
2019-04-14T15:22:10.016Z,49.52
2019-04-14T15:24:38.815Z,50.62
2019-04-14T15:27:07.536Z,48.08
2019-04-14T15:29:55.655Z,47.13
2019-04-14T15:32:24.356Z,47.60
2019-04-14T15:34:53.076Z,48.52
2019-04-14T15:37:21.718Z,50.04
2019-04-14T15:39:50.471Z,47.01
2019-04-14T15:42:19.004Z,47.38
2019-04-14T15:44:47.833Z,47.16
2019-04-14T15:47:16.524Z,48.54
2019-04-14T15:49:45.278Z,48.79
2019-04-14T15:52:34.530Z,50.06
2019-04-14T15:55:03.541Z,51.12
2019-04-14T15:57:51.596Z,51.04
2019-04-14T16:00:39.859Z,51.08
2019-04-14T16:03:27.679Z,50.71
2019-04-14T16:06:15.699Z,50.88
2019-04-14T16:11:52.724Z,52.08
2019-04-14T16:14:59.772Z,52.04
2019-04-14T16:17:47.585Z,52.17
2019-04-14T16:23:05.482Z,51.65
2019-04-14T16:26:12.588Z,52.55
2019-04-14T16:29:02.643Z,53.31
2019-04-14T16:31:49.974Z,54.60
2019-04-14T16:37:07.897Z,54.85
2019-04-14T16:39:36.569Z,56.04
2019-04-14T16:42:05.261Z,55.17
2019-04-14T16:44:33.920Z,55.05
2019-04-14T16:47:02.608Z,54.91
2019-04-14T16:49:31.265Z,53.80
2019-04-14T16:52:19.075Z,55.25
2019-04-14T16:57:56.093Z,56.02
2019-04-14T17:03:04.284Z,55.79
2019-04-14T17:05:32.871Z,55.97
2019-04-14T17:08:01.504Z,55.89
2019-04-14T17:10:30.182Z,55.17
2019-04-14T17:13:18.441Z,55.60
2019-04-14T17:16:06.210Z,56.14
2019-04-14T17:18:53.967Z,56.22
2019-04-14T17:21:41.739Z,56.42
2019-04-14T17:30:00.255Z,58.13
2019-04-14T17:32:48.062Z,58.46
2019-04-14T17:40:50.644Z,58.82
2019-04-14T17:43:38.449Z,59.71
2019-04-14T17:46:26.220Z,59.89
2019-04-14T17:49:14.033Z,60.58
2019-04-14T17:52:01.808Z,61.01
2019-04-14T17:54:49.538Z,61.47
2019-04-14T17:57:37.741Z,61.83
2019-04-14T18:00:46.658Z,62.56
2019-04-14T18:03:34.501Z,62.43
2019-04-14T18:06:22.320Z,63.28
2019-04-14T18:09:10.097Z,63.64
2019-04-14T18:11:57.909Z,63.97
2019-04-14T18:17:34.931Z,65.07
2019-04-14T18:23:11.688Z,65.44
2019-04-14T18:25:40.272Z,66.67
2019-04-14T18:28:28.085Z,66.89
2019-04-14T18:31:16.350Z,66.54
2019-04-14T18:34:04.197Z,67.15
2019-04-14T18:39:49.901Z,67.57
2019-04-14T18:45:48.202Z,68.75
2019-04-14T18:48:35.960Z,68.90
2019-04-14T18:51:23.742Z,69.73
2019-04-14T18:56:51.112Z,70.54
2019-04-14T18:59:39.024Z,70.70
2019-04-14T19:04:56.839Z,70.76
2019-04-14T19:07:25.542Z,71.78
2019-04-14T19:09:54.060Z,71.49
2019-04-14T19:15:36.762Z,71.98
2019-04-14T19:18:43.880Z,72.01
2019-04-14T19:21:31.598Z,72.76
2019-04-14T19:24:00.317Z,72.74
2019-04-14T19:26:28.968Z,72.95
2019-04-14T19:28:57.663Z,74.10
2019-04-14T19:31:26.326Z,74.44
2019-04-14T19:34:02.052Z,74.86
2019-04-14T19:36:49.905Z,73.75
2019-04-14T19:39:18.607Z,73.82
2019-04-14T19:41:47.270Z,73.92
2019-04-14T19:44:15.944Z,73.68
2019-04-14T19:47:24.507Z,73.92
2019-04-14T19:49:53.245Z,73.70
2019-04-14T19:52:21.902Z,74.90
2019-04-14T19:54:50.487Z,74.97
2019-04-14T19:57:19.201Z,75.05
2019-04-14T19:59:47.916Z,75.62
2019-04-14T20:02:16.708Z,75.53
2019-04-14T20:04:45.738Z,75.92
2019-04-14T20:07:14.539Z,75.29
2019-04-14T20:09:43.180Z,75.87
2019-04-14T20:14:51.671Z,76.95
2019-04-14T20:17:39.437Z,76.90
2019-04-14T20:20:27.270Z,76.50
2019-04-14T20:28:39.809Z,76.49
2019-04-14T20:31:27.506Z,76.95
2019-04-14T20:33:56.133Z,77.51
2019-04-14T20:36:24.755Z,78.51
2019-04-14T20:38:53.462Z,78.21
2019-04-14T20:41:22.027Z,78.90
2019-04-14T20:43:50.917Z,79.21
2019-04-14T20:46:19.650Z,78.78
2019-04-14T20:48:48.334Z,79.70
2019-04-14T20:51:17.046Z,79.39
2019-04-14T20:53:45.685Z,79.69
2019-04-14T20:59:09.221Z,79.91
2019-04-14T21:07:23.240Z,79.92
2019-04-14T21:13:00.256Z,80.59
2019-04-14T21:18:37.227Z,81.69
2019-04-14T21:24:33.563Z,82.59
2019-04-14T21:27:21.365Z,83.41
2019-04-14T21:35:25.910Z,81.85
2019-04-14T21:41:22.153Z,82.24
2019-04-14T21:43:50.701Z,82.76
2019-04-14T21:46:19.382Z,83.71
2019-04-14T21:49:07.296Z,84.33
2019-04-14T21:51:55.034Z,83.13
2019-04-14T21:54:23.746Z,83.81
2019-04-14T22:02:27.715Z,85.65
2019-04-14T22:05:34.750Z,86.24
2019-04-14T22:08:25.131Z,85.94
2019-04-14T22:13:32.521Z,85.66
2019-04-14T22:16:01.272Z,87.00
2019-04-14T22:21:24.658Z,86.45
2019-04-14T22:24:01.383Z,86.33
2019-04-14T22:26:26.348Z,86.65
2019-04-14T22:28:54.147Z,86.24
2019-04-14T22:31:22.962Z,85.88
2019-04-14T22:33:51.762Z,85.75
2019-04-14T22:36:20.428Z,85.91
2019-04-14T22:38:48.942Z,86.52
2019-04-14T22:41:17.633Z,86.63
2019-04-14T22:43:46.314Z,86.45
2019-04-14T22:46:15.001Z,86.65
2019-04-14T22:48:43.702Z,87.12
2019-04-14T22:51:12.304Z,87.15
2019-04-14T22:53:41.039Z,87.89
2019-04-14T22:56:09.690Z,88.46
2019-04-14T22:58:38.439Z,87.66
2019-04-14T23:01:46.916Z,87.11
2019-04-14T23:15:04.827Z,89.12
2019-04-14T23:17:52.703Z,88.96
2019-04-14T23:20:40.516Z,88.24
2019-04-14T23:23:28.330Z,87.55
2019-04-14T23:25:57.137Z,87.57
2019-04-14T23:28:25.821Z,86.81
2019-04-14T23:30:54.474Z,86.63
2019-04-14T23:33:23.383Z,86.73
2019-04-14T23:36:11.699Z,87.10
2019-04-14T23:38:41.176Z,86.89
2019-04-14T23:41:10.337Z,87.50
2019-04-14T23:43:39.496Z,87.32
2019-04-14T23:46:08.124Z,86.91
2019-04-14T23:48:56.302Z,87.03
2019-04-14T23:51:25.417Z,87.21
2019-04-14T23:53:54.451Z,88.34
2019-04-14T23:56:23.812Z,87.46
2019-04-14T23:58:52.643Z,87.41
